sensor_id;sensor_type;location;lat;lon;timestamp;P1;durP1;ratioP1;P2;durP2;ratioP2
71730;SDS011;65964;43.496;3.710;2023-04-19T00:00:56;11.65;;;7.32;;
71730;SDS011;65964;43.496;3.710;2023-04-19T00:03:25;12.57;;;6.93;;
71730;SDS011;65964;43.496;3.710;2023-04-19T00:05:51;11.88;;;7.15;;
71730;SDS011;65964;43.496;3.710;2023-04-19T00:08:18;11.43;;;7.28;;
71730;SDS011;65964;43.496;3.710;2023-04-19T00:10:44;13.82;;;7.65;;
71730;SDS011;65964;43.496;3.710;2023-04-19T00:13:10;9.63;;;6.88;;
71730;SDS011;65964;43.496;3.710;2023-04-19T00:15:36;12.20;;;7.47;;
71730;SDS011;65964;43.496;3.710;2023-04-19T00:18:02;11.00;;;7.53;;
71730;SDS011;65964;43.496;3.710;2023-04-19T00:20:28;10.40;;;7.32;;
71730;SDS011;65964;43.496;3.710;2023-04-19T00:22:54;11.68;;;7.40;;
71730;SDS011;65964;43.496;3.710;2023-04-19T00:25:23;10.80;;;7.45;;
71730;SDS011;65964;43.496;3.710;2023-04-19T00:27:49;9.93;;;7.00;;
71730;SDS011;65964;43.496;3.710;2023-04-19T00:30:15;11.85;;;7.50;;
71730;SDS011;65964;43.496;3.710;2023-04-19T00:32:41;11.93;;;7.68;;
71730;SDS011;65964;43.496;3.710;2023-04-19T00:35:07;10.95;;;7.43;;
71730;SDS011;65964;43.496;3.710;2023-04-19T00:37:33;10.95;;;7.05;;
71730;SDS011;65964;43.496;3.710;2023-04-19T00:39:59;10.15;;;7.25;;
71730;SDS011;65964;43.496;3.710;2023-04-19T00:42:25;11.27;;;7.53;;
71730;SDS011;65964;43.496;3.710;2023-04-19T00:44:51;10.23;;;7.15;;
71730;SDS011;65964;43.496;3.710;2023-04-19T00:47:17;12.23;;;7.32;;
71730;SDS011;65964;43.496;3.710;2023-04-19T00:49:43;12.20;;;7.22;;
71730;SDS011;65964;43.496;3.710;2023-04-19T00:52:09;11.57;;;7.13;;
71730;SDS011;65964;43.496;3.710;2023-04-19T00:54:36;9.93;;;7.07;;
71730;SDS011;65964;43.496;3.710;2023-04-19T00:57:05;10.55;;;6.80;;
71730;SDS011;65964;43.496;3.710;2023-04-19T00:59:31;11.15;;;7.57;;
71730;SDS011;65964;43.496;3.710;2023-04-19T01:01:57;10.45;;;6.90;;
71730;SDS011;65964;43.496;3.710;2023-04-19T01:04:23;10.15;;;6.82;;
71730;SDS011;65964;43.496;3.710;2023-04-19T01:06:49;10.68;;;6.93;;
71730;SDS011;65964;43.496;3.710;2023-04-19T01:09:15;11.02;;;7.20;;
71730;SDS011;65964;43.496;3.710;2023-04-19T01:11:41;10.55;;;6.70;;
71730;SDS011;65964;43.496;3.710;2023-04-19T01:14:07;9.57;;;6.20;;
71730;SDS011;65964;43.496;3.710;2023-04-19T01:16:33;8.48;;;6.15;;
71730;SDS011;65964;43.496;3.710;2023-04-19T01:19:00;9.20;;;6.10;;
71730;SDS011;65964;43.496;3.710;2023-04-19T01:21:26;10.52;;;6.20;;
71730;SDS011;65964;43.496;3.710;2023-04-19T01:23:54;8.70;;;6.13;;
71730;SDS011;65964;43.496;3.710;2023-04-19T01:26:20;8.82;;;6.05;;
71730;SDS011;65964;43.496;3.710;2023-04-19T01:28:46;9.40;;;5.57;;
71730;SDS011;65964;43.496;3.710;2023-04-19T01:31:12;9.07;;;6.00;;
71730;SDS011;65964;43.496;3.710;2023-04-19T01:33:38;9.10;;;5.75;;
71730;SDS011;65964;43.496;3.710;2023-04-19T01:36:04;8.20;;;5.25;;
71730;SDS011;65964;43.496;3.710;2023-04-19T01:38:30;12.90;;;5.75;;
71730;SDS011;65964;43.496;3.710;2023-04-19T01:40:56;8.27;;;4.95;;
71730;SDS011;65964;43.496;3.710;2023-04-19T01:43:22;10.27;;;5.35;;
71730;SDS011;65964;43.496;3.710;2023-04-19T01:45:48;8.23;;;5.38;;
71730;SDS011;65964;43.496;3.710;2023-04-19T01:48:15;9.15;;;5.30;;
71730;SDS011;65964;43.496;3.710;2023-04-19T01:50:41;7.55;;;4.88;;
71730;SDS011;65964;43.496;3.710;2023-04-19T01:53:07;9.18;;;5.18;;
71730;SDS011;65964;43.496;3.710;2023-04-19T01:55:33;8.85;;;4.80;;
71730;SDS011;65964;43.496;3.710;2023-04-19T01:57:59;7.55;;;4.63;;
71730;SDS011;65964;43.496;3.710;2023-04-19T02:00:25;7.88;;;5.07;;
71730;SDS011;65964;43.496;3.710;2023-04-19T02:02:51;7.60;;;5.07;;
71730;SDS011;65964;43.496;3.710;2023-04-19T02:05:17;9.95;;;5.45;;
71730;SDS011;65964;43.496;3.710;2023-04-19T02:07:43;8.77;;;4.97;;
71730;SDS011;65964;43.496;3.710;2023-04-19T02:10:09;8.45;;;4.93;;
71730;SDS011;65964;43.496;3.710;2023-04-19T02:12:35;8.82;;;4.72;;
71730;SDS011;65964;43.496;3.710;2023-04-19T02:15:01;9.13;;;4.43;;
71730;SDS011;65964;43.496;3.710;2023-04-19T02:17:27;8.98;;;4.35;;
71730;SDS011;65964;43.496;3.710;2023-04-19T02:19:54;7.72;;;4.55;;
71730;SDS011;65964;43.496;3.710;2023-04-19T02:22:20;6.95;;;4.15;;
71730;SDS011;65964;43.496;3.710;2023-04-19T02:24:46;7.90;;;4.40;;
71730;SDS011;65964;43.496;3.710;2023-04-19T02:27:12;10.02;;;4.57;;
71730;SDS011;65964;43.496;3.710;2023-04-19T02:29:38;9.88;;;5.40;;
71730;SDS011;65964;43.496;3.710;2023-04-19T02:32:05;9.65;;;5.40;;
71730;SDS011;65964;43.496;3.710;2023-04-19T02:34:31;7.55;;;4.50;;
71730;SDS011;65964;43.496;3.710;2023-04-19T02:36:57;8.25;;;4.07;;
71730;SDS011;65964;43.496;3.710;2023-04-19T02:39:23;7.30;;;3.75;;
71730;SDS011;65964;43.496;3.710;2023-04-19T02:41:49;6.45;;;4.00;;
71730;SDS011;65964;43.496;3.710;2023-04-19T02:44:15;6.50;;;3.65;;
71730;SDS011;65964;43.496;3.710;2023-04-19T02:46:47;7.22;;;3.72;;
71730;SDS011;65964;43.496;3.710;2023-04-19T02:49:13;6.93;;;3.92;;
71730;SDS011;65964;43.496;3.710;2023-04-19T02:51:39;6.47;;;3.60;;
71730;SDS011;65964;43.496;3.710;2023-04-19T02:54:05;5.75;;;3.70;;
71730;SDS011;65964;43.496;3.710;2023-04-19T02:56:31;6.05;;;3.53;;
71730;SDS011;65964;43.496;3.710;2023-04-19T02:59:00;6.63;;;3.70;;
71730;SDS011;65964;43.496;3.710;2023-04-19T03:01:26;8.10;;;4.13;;
71730;SDS011;65964;43.496;3.710;2023-04-19T03:03:52;7.22;;;3.50;;
71730;SDS011;65964;43.496;3.710;2023-04-19T03:06:18;5.95;;;3.55;;
71730;SDS011;65964;43.496;3.710;2023-04-19T03:08:44;7.00;;;3.83;;
71730;SDS011;65964;43.496;3.710;2023-04-19T03:11:11;8.48;;;3.70;;
71730;SDS011;65964;43.496;3.710;2023-04-19T03:13:37;7.63;;;4.05;;
71730;SDS011;65964;43.496;3.710;2023-04-19T03:16:04;6.82;;;3.67;;
71730;SDS011;65964;43.496;3.710;2023-04-19T03:18:31;5.85;;;3.75;;
71730;SDS011;65964;43.496;3.710;2023-04-19T03:20:57;6.13;;;4.00;;
71730;SDS011;65964;43.496;3.710;2023-04-19T03:23:24;7.80;;;3.90;;
71730;SDS011;65964;43.496;3.710;2023-04-19T03:25:50;11.73;;;4.47;;
71730;SDS011;65964;43.496;3.710;2023-04-19T03:28:16;12.25;;;4.03;;
71730;SDS011;65964;43.496;3.710;2023-04-19T03:30:42;13.00;;;4.32;;
71730;SDS011;65964;43.496;3.710;2023-04-19T03:33:08;9.85;;;4.05;;
71730;SDS011;65964;43.496;3.710;2023-04-19T03:35:34;5.55;;;3.92;;
71730;SDS011;65964;43.496;3.710;2023-04-19T03:38:00;12.77;;;4.60;;
71730;SDS011;65964;43.496;3.710;2023-04-19T03:40:27;9.02;;;4.60;;
71730;SDS011;65964;43.496;3.710;2023-04-19T03:42:53;9.35;;;4.30;;
71730;SDS011;65964;43.496;3.710;2023-04-19T03:45:19;8.75;;;4.13;;
71730;SDS011;65964;43.496;3.710;2023-04-19T03:47:45;7.78;;;4.07;;
71730;SDS011;65964;43.496;3.710;2023-04-19T03:50:11;7.18;;;3.80;;
71730;SDS011;65964;43.496;3.710;2023-04-19T03:52:37;6.30;;;3.90;;
71730;SDS011;65964;43.496;3.710;2023-04-19T03:55:03;6.40;;;4.05;;
71730;SDS011;65964;43.496;3.710;2023-04-19T03:57:30;7.30;;;4.32;;
71730;SDS011;65964;43.496;3.710;2023-04-19T03:59:56;5.95;;;3.97;;
71730;SDS011;65964;43.496;3.710;2023-04-19T04:02:22;8.10;;;4.30;;
71730;SDS011;65964;43.496;3.710;2023-04-19T04:04:54;7.32;;;3.80;;
71730;SDS011;65964;43.496;3.710;2023-04-19T04:07:20;5.40;;;3.65;;
71730;SDS011;65964;43.496;3.710;2023-04-19T04:09:47;8.52;;;4.28;;
71730;SDS011;65964;43.496;3.710;2023-04-19T04:12:13;5.57;;;3.80;;
71730;SDS011;65964;43.496;3.710;2023-04-19T04:14:39;6.82;;;3.92;;
71730;SDS011;65964;43.496;3.710;2023-04-19T04:17:05;7.10;;;4.15;;
71730;SDS011;65964;43.496;3.710;2023-04-19T04:19:31;6.38;;;3.75;;
71730;SDS011;65964;43.496;3.710;2023-04-19T04:21:57;9.38;;;4.50;;
71730;SDS011;65964;43.496;3.710;2023-04-19T04:24:23;7.22;;;3.90;;
71730;SDS011;65964;43.496;3.710;2023-04-19T04:26:50;7.30;;;4.28;;
71730;SDS011;65964;43.496;3.710;2023-04-19T04:29:16;7.72;;;4.05;;
71730;SDS011;65964;43.496;3.710;2023-04-19T04:31:42;9.45;;;4.05;;
71730;SDS011;65964;43.496;3.710;2023-04-19T04:34:08;8.63;;;3.85;;
71730;SDS011;65964;43.496;3.710;2023-04-19T04:36:34;8.65;;;4.00;;
71730;SDS011;65964;43.496;3.710;2023-04-19T04:39:02;10.35;;;4.20;;
71730;SDS011;65964;43.496;3.710;2023-04-19T04:41:28;11.82;;;4.45;;
71730;SDS011;65964;43.496;3.710;2023-04-19T04:43:55;8.10;;;4.20;;
71730;SDS011;65964;43.496;3.710;2023-04-19T04:46:22;6.35;;;3.90;;
71730;SDS011;65964;43.496;3.710;2023-04-19T04:48:48;14.85;;;5.20;;
71730;SDS011;65964;43.496;3.710;2023-04-19T04:51:14;12.82;;;4.57;;
71730;SDS011;65964;43.496;3.710;2023-04-19T04:53:40;12.27;;;4.32;;
71730;SDS011;65964;43.496;3.710;2023-04-19T04:56:06;11.18;;;5.00;;
71730;SDS011;65964;43.496;3.710;2023-04-19T04:58:33;9.70;;;4.00;;
71730;SDS011;65964;43.496;3.710;2023-04-19T05:00:59;12.02;;;4.95;;
71730;SDS011;65964;43.496;3.710;2023-04-19T05:03:25;8.50;;;4.32;;
71730;SDS011;65964;43.496;3.710;2023-04-19T05:05:51;10.55;;;4.80;;
71730;SDS011;65964;43.496;3.710;2023-04-19T05:08:17;15.27;;;5.25;;
71730;SDS011;65964;43.496;3.710;2023-04-19T05:10:43;10.95;;;4.90;;
71730;SDS011;65964;43.496;3.710;2023-04-19T05:13:09;13.55;;;5.05;;
71730;SDS011;65964;43.496;3.710;2023-04-19T05:15:36;11.13;;;5.30;;
71730;SDS011;65964;43.496;3.710;2023-04-19T05:18:02;13.13;;;5.38;;
71730;SDS011;65964;43.496;3.710;2023-04-19T05:20:28;10.70;;;4.97;;
71730;SDS011;65964;43.496;3.710;2023-04-19T05:22:57;12.70;;;4.68;;
71730;SDS011;65964;43.496;3.710;2023-04-19T05:25:24;12.13;;;5.60;;
71730;SDS011;65964;43.496;3.710;2023-04-19T05:27:50;12.20;;;5.53;;
71730;SDS011;65964;43.496;3.710;2023-04-19T05:30:16;9.60;;;5.50;;
71730;SDS011;65964;43.496;3.710;2023-04-19T05:32:42;14.57;;;6.20;;
71730;SDS011;65964;43.496;3.710;2023-04-19T05:35:08;14.63;;;5.47;;
71730;SDS011;65964;43.496;3.710;2023-04-19T05:37:35;10.15;;;5.00;;
71730;SDS011;65964;43.496;3.710;2023-04-19T05:40:01;9.23;;;4.65;;
71730;SDS011;65964;43.496;3.710;2023-04-19T05:42:29;11.05;;;5.32;;
71730;SDS011;65964;43.496;3.710;2023-04-19T05:44:55;13.27;;;5.43;;
71730;SDS011;65964;43.496;3.710;2023-04-19T05:47:21;16.10;;;5.85;;
71730;SDS011;65964;43.496;3.710;2023-04-19T05:49:48;15.95;;;5.78;;
71730;SDS011;65964;43.496;3.710;2023-04-19T05:52:14;11.30;;;5.43;;
71730;SDS011;65964;43.496;3.710;2023-04-19T05:54:40;11.75;;;5.18;;
71730;SDS011;65964;43.496;3.710;2023-04-19T05:57:07;14.65;;;4.95;;
71730;SDS011;65964;43.496;3.710;2023-04-19T05:59:33;15.80;;;6.00;;
71730;SDS011;65964;43.496;3.710;2023-04-19T06:01:59;22.90;;;6.82;;
71730;SDS011;65964;43.496;3.710;2023-04-19T06:04:26;18.35;;;5.82;;
71730;SDS011;65964;43.496;3.710;2023-04-19T06:06:52;15.40;;;5.35;;
71730;SDS011;65964;43.496;3.710;2023-04-19T06:09:18;13.65;;;4.18;;
71730;SDS011;65964;43.496;3.710;2023-04-19T06:11:44;15.20;;;5.90;;
71730;SDS011;65964;43.496;3.710;2023-04-19T06:14:10;10.77;;;5.13;;
71730;SDS011;65964;43.496;3.710;2023-04-19T06:16:40;14.45;;;4.43;;
71730;SDS011;65964;43.496;3.710;2023-04-19T06:19:06;13.73;;;4.60;;
71730;SDS011;65964;43.496;3.710;2023-04-19T06:21:32;9.50;;;3.55;;
71730;SDS011;65964;43.496;3.710;2023-04-19T06:23:58;9.80;;;3.88;;
71730;SDS011;65964;43.496;3.710;2023-04-19T06:26:24;12.38;;;3.58;;
71730;SDS011;65964;43.496;3.710;2023-04-19T06:28:50;5.57;;;2.78;;
71730;SDS011;65964;43.496;3.710;2023-04-19T06:31:16;7.15;;;3.30;;
71730;SDS011;65964;43.496;3.710;2023-04-19T06:33:42;6.18;;;2.85;;
71730;SDS011;65964;43.496;3.710;2023-04-19T06:36:09;9.48;;;3.40;;
71730;SDS011;65964;43.496;3.710;2023-04-19T06:38:35;7.10;;;2.97;;
71730;SDS011;65964;43.496;3.710;2023-04-19T06:41:02;9.93;;;2.95;;
71730;SDS011;65964;43.496;3.710;2023-04-19T06:43:28;8.15;;;3.17;;
71730;SDS011;65964;43.496;3.710;2023-04-19T06:46:01;6.22;;;2.70;;
71730;SDS011;65964;43.496;3.710;2023-04-19T06:48:28;7.88;;;3.25;;
71730;SDS011;65964;43.496;3.710;2023-04-19T06:50:54;11.35;;;3.17;;
71730;SDS011;65964;43.496;3.710;2023-04-19T06:53:21;9.05;;;3.00;;
71730;SDS011;65964;43.496;3.710;2023-04-19T06:55:47;10.18;;;3.20;;
71730;SDS011;65964;43.496;3.710;2023-04-19T06:58:13;7.15;;;2.40;;
71730;SDS011;65964;43.496;3.710;2023-04-19T07:00:39;6.57;;;3.33;;
71730;SDS011;65964;43.496;3.710;2023-04-19T07:03:05;7.63;;;3.00;;
71730;SDS011;65964;43.496;3.710;2023-04-19T07:05:31;11.18;;;7.22;;
71730;SDS011;65964;43.496;3.710;2023-04-19T07:07:57;9.23;;;4.40;;
71730;SDS011;65964;43.496;3.710;2023-04-19T07:10:23;4.93;;;2.80;;
71730;SDS011;65964;43.496;3.710;2023-04-19T07:12:49;5.53;;;2.80;;
71730;SDS011;65964;43.496;3.710;2023-04-19T07:15:16;8.98;;;3.20;;
71730;SDS011;65964;43.496;3.710;2023-04-19T07:17:42;15.98;;;3.72;;
71730;SDS011;65964;43.496;3.710;2023-04-19T07:20:08;9.70;;;2.88;;
71730;SDS011;65964;43.496;3.710;2023-04-19T07:22:34;9.35;;;4.10;;
71730;SDS011;65964;43.496;3.710;2023-04-19T07:25:00;9.50;;;4.15;;
71730;SDS011;65964;43.496;3.710;2023-04-19T07:27:26;4.93;;;2.53;;
71730;SDS011;65964;43.496;3.710;2023-04-19T07:29:52;6.15;;;2.50;;
71730;SDS011;65964;43.496;3.710;2023-04-19T07:32:18;5.30;;;2.88;;
71730;SDS011;65964;43.496;3.710;2023-04-19T07:34:44;5.75;;;2.40;;
71730;SDS011;65964;43.496;3.710;2023-04-19T07:37:11;4.93;;;2.38;;
71730;SDS011;65964;43.496;3.710;2023-04-19T07:39:37;3.67;;;2.35;;
71730;SDS011;65964;43.496;3.710;2023-04-19T07:42:03;3.75;;;2.30;;
71730;SDS011;65964;43.496;3.710;2023-04-19T07:44:29;6.18;;;2.88;;
71730;SDS011;65964;43.496;3.710;2023-04-19T07:46:55;6.93;;;2.78;;
71730;SDS011;65964;43.496;3.710;2023-04-19T07:49:21;5.15;;;2.38;;
71730;SDS011;65964;43.496;3.710;2023-04-19T07:51:47;5.40;;;2.67;;
71730;SDS011;65964;43.496;3.710;2023-04-19T07:54:13;4.55;;;2.50;;
71730;SDS011;65964;43.496;3.710;2023-04-19T07:56:44;4.15;;;2.40;;
71730;SDS011;65964;43.496;3.710;2023-04-19T07:59:11;6.10;;;2.60;;
71730;SDS011;65964;43.496;3.710;2023-04-19T08:01:37;8.35;;;2.85;;
71730;SDS011;65964;43.496;3.710;2023-04-19T08:04:03;6.75;;;2.88;;
71730;SDS011;65964;43.496;3.710;2023-04-19T08:06:29;4.93;;;2.45;;
71730;SDS011;65964;43.496;3.710;2023-04-19T08:08:55;5.00;;;2.20;;
71730;SDS011;65964;43.496;3.710;2023-04-19T08:11:21;6.93;;;2.42;;
71730;SDS011;65964;43.496;3.710;2023-04-19T08:13:49;6.15;;;2.50;;
71730;SDS011;65964;43.496;3.710;2023-04-19T08:16:15;7.13;;;2.40;;
71730;SDS011;65964;43.496;3.710;2023-04-19T08:18:41;3.85;;;2.20;;
71730;SDS011;65964;43.496;3.710;2023-04-19T08:21:08;6.70;;;2.50;;
71730;SDS011;65964;43.496;3.710;2023-04-19T08:23:34;6.15;;;2.40;;
71730;SDS011;65964;43.496;3.710;2023-04-19T08:26:00;7.22;;;2.45;;
71730;SDS011;65964;43.496;3.710;2023-04-19T08:28:26;4.68;;;2.50;;
71730;SDS011;65964;43.496;3.710;2023-04-19T08:30:53;4.85;;;2.40;;
71730;SDS011;65964;43.496;3.710;2023-04-19T08:33:19;7.25;;;2.92;;
71730;SDS011;65964;43.496;3.710;2023-04-19T08:35:45;3.78;;;2.15;;
71730;SDS011;65964;43.496;3.710;2023-04-19T08:38:11;4.90;;;2.47;;
71730;SDS011;65964;43.496;3.710;2023-04-19T08:40:42;5.45;;;2.30;;
71730;SDS011;65964;43.496;3.710;2023-04-19T08:43:10;5.95;;;2.55;;
71730;SDS011;65964;43.496;3.710;2023-04-19T08:45:36;5.45;;;2.10;;
71730;SDS011;65964;43.496;3.710;2023-04-19T08:48:03;5.43;;;2.40;;
71730;SDS011;65964;43.496;3.710;2023-04-19T08:50:29;4.35;;;2.10;;
71730;SDS011;65964;43.496;3.710;2023-04-19T08:52:57;21.67;;;4.50;;
71730;SDS011;65964;43.496;3.710;2023-04-19T08:55:24;3.00;;;2.10;;
71730;SDS011;65964;43.496;3.710;2023-04-19T08:57:50;5.00;;;2.35;;
71730;SDS011;65964;43.496;3.710;2023-04-19T09:00:16;7.63;;;4.50;;
71730;SDS011;65964;43.496;3.710;2023-04-19T09:02:43;9.25;;;6.70;;
71730;SDS011;65964;43.496;3.710;2023-04-19T09:05:13;10.10;;;5.75;;
71730;SDS011;65964;43.496;3.710;2023-04-19T09:07:39;6.80;;;2.80;;
71730;SDS011;65964;43.496;3.710;2023-04-19T09:12:32;3.58;;;2.20;;
71730;SDS011;65964;43.496;3.710;2023-04-19T09:14:59;9.15;;;2.53;;
71730;SDS011;65964;43.496;3.710;2023-04-19T09:17:26;5.15;;;2.38;;
71730;SDS011;65964;43.496;3.710;2023-04-19T09:19:52;6.88;;;2.40;;
71730;SDS011;65964;43.496;3.710;2023-04-19T09:22:18;4.43;;;2.22;;
71730;SDS011;65964;43.496;3.710;2023-04-19T09:24:44;8.73;;;2.58;;
71730;SDS011;65964;43.496;3.710;2023-04-19T09:27:10;5.28;;;2.30;;
71730;SDS011;65964;43.496;3.710;2023-04-19T09:29:36;4.65;;;2.30;;
71730;SDS011;65964;43.496;3.710;2023-04-19T09:32:03;5.82;;;2.30;;
71730;SDS011;65964;43.496;3.710;2023-04-19T09:34:29;4.30;;;2.00;;
71730;SDS011;65964;43.496;3.710;2023-04-19T09:36:55;4.50;;;2.20;;
71730;SDS011;65964;43.496;3.710;2023-04-19T09:39:29;7.68;;;2.15;;
71730;SDS011;65964;43.496;3.710;2023-04-19T09:41:55;3.97;;;1.92;;
71730;SDS011;65964;43.496;3.710;2023-04-19T09:44:22;3.47;;;2.10;;
71730;SDS011;65964;43.496;3.710;2023-04-19T09:46:48;5.85;;;1.98;;
71730;SDS011;65964;43.496;3.710;2023-04-19T09:49:20;2.63;;;2.10;;
71730;SDS011;65964;43.496;3.710;2023-04-19T09:51:50;2.67;;;1.80;;
71730;SDS011;65964;43.496;3.710;2023-04-19T09:54:18;4.10;;;2.10;;
71730;SDS011;65964;43.496;3.710;2023-04-19T09:56:44;3.88;;;2.05;;
71730;SDS011;65964;43.496;3.710;2023-04-19T09:59:11;5.10;;;2.30;;
71730;SDS011;65964;43.496;3.710;2023-04-19T10:01:44;4.45;;;2.13;;
71730;SDS011;65964;43.496;3.710;2023-04-19T10:04:11;2.97;;;1.90;;
71730;SDS011;65964;43.496;3.710;2023-04-19T10:06:40;3.88;;;2.10;;
71730;SDS011;65964;43.496;3.710;2023-04-19T10:09:06;3.08;;;1.83;;
71730;SDS011;65964;43.496;3.710;2023-04-19T10:11:36;3.85;;;2.20;;
71730;SDS011;65964;43.496;3.710;2023-04-19T10:14:09;2.90;;;1.80;;
71730;SDS011;65964;43.496;3.710;2023-04-19T10:16:36;3.22;;;1.80;;
71730;SDS011;65964;43.496;3.710;2023-04-19T10:19:04;3.35;;;1.75;;
71730;SDS011;65964;43.496;3.710;2023-04-19T10:21:31;2.08;;;1.60;;
71730;SDS011;65964;43.496;3.710;2023-04-19T10:23:58;1.83;;;1.70;;
71730;SDS011;65964;43.496;3.710;2023-04-19T10:26:24;2.97;;;2.00;;
71730;SDS011;65964;43.496;3.710;2023-04-19T10:28:52;3.22;;;1.83;;
71730;SDS011;65964;43.496;3.710;2023-04-19T10:31:19;4.45;;;1.90;;
71730;SDS011;65964;43.496;3.710;2023-04-19T10:33:47;3.00;;;1.95;;
71730;SDS011;65964;43.496;3.710;2023-04-19T10:36:13;4.18;;;1.85;;
71730;SDS011;65964;43.496;3.710;2023-04-19T10:38:45;3.92;;;2.00;;
71730;SDS011;65964;43.496;3.710;2023-04-19T10:41:12;1.80;;;1.70;;
71730;SDS011;65964;43.496;3.710;2023-04-19T10:43:47;2.78;;;2.05;;
71730;SDS011;65964;43.496;3.710;2023-04-19T10:49:00;4.05;;;2.10;;
71730;SDS011;65964;43.496;3.710;2023-04-19T10:51:27;4.32;;;2.00;;
71730;SDS011;65964;43.496;3.710;2023-04-19T10:53:57;14.85;;;2.78;;
71730;SDS011;65964;43.496;3.710;2023-04-19T11:01:39;3.60;;;1.92;;
71730;SDS011;65964;43.496;3.710;2023-04-19T11:04:10;3.10;;;2.08;;
71730;SDS011;65964;43.496;3.710;2023-04-19T11:06:37;3.67;;;1.95;;
71730;SDS011;65964;43.496;3.710;2023-04-19T11:09:03;3.58;;;2.00;;
71730;SDS011;65964;43.496;3.710;2023-04-19T11:11:34;5.38;;;2.13;;
71730;SDS011;65964;43.496;3.710;2023-04-19T11:14:00;2.17;;;1.73;;
71730;SDS011;65964;43.496;3.710;2023-04-19T11:16:28;4.22;;;2.13;;
71730;SDS011;65964;43.496;3.710;2023-04-19T11:18:54;2.83;;;1.92;;
71730;SDS011;65964;43.496;3.710;2023-04-19T11:21:20;3.70;;;1.90;;
71730;SDS011;65964;43.496;3.710;2023-04-19T11:23:47;4.15;;;1.90;;
71730;SDS011;65964;43.496;3.710;2023-04-19T11:26:14;3.85;;;1.88;;
71730;SDS011;65964;43.496;3.710;2023-04-19T11:28:40;2.50;;;1.80;;
71730;SDS011;65964;43.496;3.710;2023-04-19T11:31:06;2.50;;;1.80;;
71730;SDS011;65964;43.496;3.710;2023-04-19T11:33:33;2.03;;;1.83;;
71730;SDS011;65964;43.496;3.710;2023-04-19T11:35:59;2.30;;;1.98;;
71730;SDS011;65964;43.496;3.710;2023-04-19T11:38:28;3.58;;;1.85;;
71730;SDS011;65964;43.496;3.710;2023-04-19T11:40:58;4.03;;;1.92;;
71730;SDS011;65964;43.496;3.710;2023-04-19T11:43:30;2.20;;;1.73;;
71730;SDS011;65964;43.496;3.710;2023-04-19T11:46:01;2.40;;;1.90;;
71730;SDS011;65964;43.496;3.710;2023-04-19T11:48:30;2.50;;;1.80;;
71730;SDS011;65964;43.496;3.710;2023-04-19T11:50:56;3.00;;;1.90;;
71730;SDS011;65964;43.496;3.710;2023-04-19T11:53:23;2.50;;;1.98;;
71730;SDS011;65964;43.496;3.710;2023-04-19T11:55:54;3.25;;;1.70;;
71730;SDS011;65964;43.496;3.710;2023-04-19T11:58:43;3.85;;;2.15;;
71730;SDS011;65964;43.496;3.710;2023-04-19T12:01:12;2.95;;;1.98;;
71730;SDS011;65964;43.496;3.710;2023-04-19T12:03:48;6.28;;;2.20;;
71730;SDS011;65964;43.496;3.710;2023-04-19T12:08:42;5.10;;;2.08;;
71730;SDS011;65964;43.496;3.710;2023-04-19T12:11:08;2.22;;;1.80;;
71730;SDS011;65964;43.496;3.710;2023-04-19T12:13:34;5.68;;;2.25;;
71730;SDS011;65964;43.496;3.710;2023-04-19T12:16:00;2.97;;;1.90;;
71730;SDS011;65964;43.496;3.710;2023-04-19T12:18:27;2.25;;;1.77;;
71730;SDS011;65964;43.496;3.710;2023-04-19T12:20:53;3.05;;;1.88;;
71730;SDS011;65964;43.496;3.710;2023-04-19T12:23:19;3.58;;;2.10;;
71730;SDS011;65964;43.496;3.710;2023-04-19T12:25:46;2.47;;;1.85;;
71730;SDS011;65964;43.496;3.710;2023-04-19T12:28:13;2.97;;;1.85;;
71730;SDS011;65964;43.496;3.710;2023-04-19T12:30:39;4.05;;;2.10;;
71730;SDS011;65964;43.496;3.710;2023-04-19T12:33:05;4.32;;;2.08;;
71730;SDS011;65964;43.496;3.710;2023-04-19T12:35:32;4.40;;;2.03;;
71730;SDS011;65964;43.496;3.710;2023-04-19T12:37:59;3.85;;;2.33;;
71730;SDS011;65964;43.496;3.710;2023-04-19T12:40:26;3.90;;;1.90;;
71730;SDS011;65964;43.496;3.710;2023-04-19T12:42:52;6.95;;;2.10;;
71730;SDS011;65964;43.496;3.710;2023-04-19T12:45:19;2.08;;;1.80;;
71730;SDS011;65964;43.496;3.710;2023-04-19T12:47:45;8.73;;;2.50;;
71730;SDS011;65964;43.496;3.710;2023-04-19T12:50:12;5.57;;;2.00;;
71730;SDS011;65964;43.496;3.710;2023-04-19T12:52:38;6.18;;;2.20;;
71730;SDS011;65964;43.496;3.710;2023-04-19T12:55:05;4.20;;;2.00;;
71730;SDS011;65964;43.496;3.710;2023-04-19T12:57:31;4.28;;;1.98;;
71730;SDS011;65964;43.496;3.710;2023-04-19T12:59:57;2.95;;;1.85;;
71730;SDS011;65964;43.496;3.710;2023-04-19T13:02:23;3.58;;;2.00;;
71730;SDS011;65964;43.496;3.710;2023-04-19T13:04:49;4.63;;;2.17;;
71730;SDS011;65964;43.496;3.710;2023-04-19T13:07:16;3.90;;;2.30;;
71730;SDS011;65964;43.496;3.710;2023-04-19T13:09:42;5.28;;;2.10;;
71730;SDS011;65964;43.496;3.710;2023-04-19T13:12:08;5.00;;;2.50;;
71730;SDS011;65964;43.496;3.710;2023-04-19T13:14:34;4.75;;;2.40;;
71730;SDS011;65964;43.496;3.710;2023-04-19T13:17:00;4.53;;;2.40;;
71730;SDS011;65964;43.496;3.710;2023-04-19T13:19:26;5.00;;;2.45;;
71730;SDS011;65964;43.496;3.710;2023-04-19T13:21:52;5.40;;;2.53;;
71730;SDS011;65964;43.496;3.710;2023-04-19T13:24:18;7.63;;;2.63;;
71730;SDS011;65964;43.496;3.710;2023-04-19T13:26:44;8.63;;;2.58;;
71730;SDS011;65964;43.496;3.710;2023-04-19T13:29:10;7.97;;;2.70;;
71730;SDS011;65964;43.496;3.710;2023-04-19T13:31:36;7.75;;;2.55;;
71730;SDS011;65964;43.496;3.710;2023-04-19T13:34:03;10.00;;;2.85;;
71730;SDS011;65964;43.496;3.710;2023-04-19T13:36:29;5.82;;;2.80;;
71730;SDS011;65964;43.496;3.710;2023-04-19T13:38:55;7.03;;;2.67;;
71730;SDS011;65964;43.496;3.710;2023-04-19T13:41:21;8.25;;;3.05;;
71730;SDS011;65964;43.496;3.710;2023-04-19T13:43:47;5.90;;;2.70;;
71730;SDS011;65964;43.496;3.710;2023-04-19T13:46:13;9.50;;;2.85;;
71730;SDS011;65964;43.496;3.710;2023-04-19T13:48:39;5.70;;;2.47;;
71730;SDS011;65964;43.496;3.710;2023-04-19T13:51:05;7.93;;;2.78;;
71730;SDS011;65964;43.496;3.710;2023-04-19T13:53:31;6.68;;;2.70;;
71730;SDS011;65964;43.496;3.710;2023-04-19T13:55:58;8.93;;;2.83;;
71730;SDS011;65964;43.496;3.710;2023-04-19T13:58:24;10.55;;;3.00;;
71730;SDS011;65964;43.496;3.710;2023-04-19T14:00:50;6.13;;;2.60;;
71730;SDS011;65964;43.496;3.710;2023-04-19T14:03:16;8.25;;;2.80;;
71730;SDS011;65964;43.496;3.710;2023-04-19T14:05:42;7.97;;;2.90;;
71730;SDS011;65964;43.496;3.710;2023-04-19T14:08:08;7.40;;;2.70;;
71730;SDS011;65964;43.496;3.710;2023-04-19T14:10:34;6.75;;;2.92;;
71730;SDS011;65964;43.496;3.710;2023-04-19T14:13:01;14.43;;;3.35;;
71730;SDS011;65964;43.496;3.710;2023-04-19T14:15:27;7.90;;;2.70;;
71730;SDS011;65964;43.496;3.710;2023-04-19T14:17:53;7.25;;;2.70;;
71730;SDS011;65964;43.496;3.710;2023-04-19T14:20:19;7.95;;;2.60;;
71730;SDS011;65964;43.496;3.710;2023-04-19T14:22:45;8.23;;;2.80;;
71730;SDS011;65964;43.496;3.710;2023-04-19T14:25:12;6.05;;;2.60;;
71730;SDS011;65964;43.496;3.710;2023-04-19T14:27:42;7.30;;;2.90;;
71730;SDS011;65964;43.496;3.710;2023-04-19T14:30:08;6.18;;;2.70;;
71730;SDS011;65964;43.496;3.710;2023-04-19T14:32:35;7.05;;;3.15;;
71730;SDS011;65964;43.496;3.710;2023-04-19T14:35:01;5.20;;;2.60;;
71730;SDS011;65964;43.496;3.710;2023-04-19T14:37:27;5.53;;;2.50;;
71730;SDS011;65964;43.496;3.710;2023-04-19T14:39:53;7.45;;;2.50;;
71730;SDS011;65964;43.496;3.710;2023-04-19T14:42:19;6.45;;;2.90;;
71730;SDS011;65964;43.496;3.710;2023-04-19T14:44:45;8.70;;;2.70;;
71730;SDS011;65964;43.496;3.710;2023-04-19T14:47:12;8.02;;;3.13;;
71730;SDS011;65964;43.496;3.710;2023-04-19T14:49:39;8.52;;;3.03;;
71730;SDS011;65964;43.496;3.710;2023-04-19T14:52:05;6.43;;;2.92;;
71730;SDS011;65964;43.496;3.710;2023-04-19T14:54:31;7.70;;;2.67;;